Time;durP1;ratioP1;P1;durP2;ratioP2;P2;SDS_P1;SDS_P2;PMS_P1;PMS_P2;Temp;Humidity;BMP_temperature;BMP_pressure;BME280_temperature;BME280_humidity;BME280_pressure;Samples;Min_cycle;Max_cycle;Signal;HPM_P1;HPM_P2
2022/06/16 00:00:06;;;;;;;;;;;;;;;-146.27;100.00;64033.13;5090905;28;20368;-37
2022/06/16 00:02:31;;;;;;;;;;;;;;;-146.27;100.00;64033.13;5090513;28;19912;-38
2022/06/16 00:04:57;;;;;;;;;;;;;;;-146.27;100.00;64033.13;5090968;28;20040;-38
2022/06/16 00:07:23;;;;;;;;;;;;;;;-146.27;100.00;64033.13;5091061;28;19912;-38
2022/06/16 00:09:48;;;;;;;;;;;;;;;-146.27;100.00;64033.13;5090993;28;19995;-38
2022/06/16 00:12:14;;;;;;;;;;;;;;;-146.27;100.00;64033.13;5090845;28;19912;-37
2022/06/16 00:14:39;;;;;;;;;;;;;;;-146.27;100.00;64033.13;5090416;28;19920;-38
2022/06/16 00:17:04;;;;;;;;;;;;;;;-146.27;100.00;64033.13;5090608;28;19935;-38
2022/06/16 00:19:30;;;;;;;;;;;;;;;-146.27;100.00;64033.13;5093645;28;19999;-38
2022/06/16 00:21:55;;;;;;;;;;;;;;;-146.27;100.00;64033.13;5110536;28;20287;-37
2022/06/16 00:24:26;;;;;;;;;;;;;;;-146.27;100.00;64033.13;5114762;28;20024;-37
2022/06/16 00:26:51;;;;;;;;;;;;;;;-146.27;100.00;64033.13;5114743;28;19914;-37
2022/06/16 00:29:17;;;;;;;;;;;;;;;-146.27;100.00;64033.13;5114921;28;19915;-38
2022/06/16 00:31:42;;;;;;;;;;;;;;;-146.27;100.00;64033.13;5115225;28;19911;-38
2022/06/16 00:34:07;;;;;;;;;;;;;;;-146.27;100.00;64033.13;5115009;28;20503;-38
2022/06/16 00:36:34;;;;;;;;;;;;;;;-146.27;100.00;64033.13;5114837;27;19915;-38
2022/06/16 00:38:59;;;;;;;;;;;;;;;-146.27;100.00;64033.13;5115303;28;20272;-38
2022/06/16 00:41:24;;;;;;;;;;;;;;;-146.27;100.00;64033.13;5113502;28;19941;-38
2022/06/16 00:43:50;;;;;;;;;;;;;;;-146.27;100.00;64033.13;5094752;28;19994;-38
2022/06/16 00:46:17;;;;;;;;;;;;;;;-146.27;100.00;64033.13;5094616;28;19934;-39
2022/06/16 00:48:51;;;;;;;;;;;;;;;-146.27;100.00;64033.13;5094958;28;20384;-38
2022/06/16 00:51:16;;;;;;;;;;;;;;;-146.27;100.00;64033.13;5094190;28;20446;-38
2022/06/16 00:53:42;;;;;;;;;;;;;;;-146.27;100.00;64033.13;5094729;28;19999;-38
2022/06/16 00:56:09;;;;;;;;;;;;;;;-146.27;100.00;64033.13;5094258;28;19923;-38
2022/06/16 00:58:37;;;;;;;;;;;;;;;-146.27;100.00;64033.13;5094403;28;19947;-38
2022/06/16 01:01:02;;;;;;;;;;;;;;;-146.27;100.00;64033.13;5093843;28;19916;-38
2022/06/16 01:06:22;;;;;;;;;;;;;;;-146.27;100.00;64033.13;5093983;28;20001;-38
2022/06/16 01:08:50;;;;;;;;;;;;;;;-146.27;100.00;64033.13;5094150;28;20020;-38
2022/06/16 01:13:41;;;;;;;;;;;;;;;-146.27;100.00;64033.13;5093786;28;19912;-38
2022/06/16 01:14:15;;;;;;;;;;;;;;;-146.27;100.00;64033.13;5093103;28;19965;-38
2022/06/16 01:16:43;;;;;;;;;;;;;;;-146.27;100.00;64033.13;5093012;28;19919;-38
2022/06/16 01:19:31;;;;;;;;;;;;;;;-146.27;100.00;64033.13;5093394;28;19962;-38
2022/06/16 01:22:05;;;;;;;;;;;;;;;-146.27;100.00;64033.13;5099481;28;19918;-38
2022/06/16 01:24:33;;;;;;;;;;;;;;;-146.27;100.00;64033.13;5113832;28;20112;-38
2022/06/16 01:27:07;;;;;;;;;;;;;;;-146.27;100.00;64033.13;5114197;28;19933;-38
2022/06/16 01:29:35;;;;;;;;;;;;;;;-146.27;100.00;64033.13;5112839;28;20038;-38
2022/06/16 01:32:15;;;;;;;;;;;;;;;-146.27;100.00;64033.13;5113922;28;19918;-38
2022/06/16 01:34:59;;;;;;;;;;;;;;;-146.27;100.00;64033.13;5113523;28;19923;-38
2022/06/16 01:37:27;;;;;;;;;;;;;;;-146.27;100.00;64033.13;5113595;28;19968;-38
2022/06/16 01:39:52;;;;;;;;;;;;;;;-146.27;100.00;64033.13;5113393;28;19916;-38
2022/06/16 01:42:23;;;;;;;;;;;;;;;-146.27;100.00;64033.13;5104498;28;19912;-38
2022/06/16 01:44:55;;;;;;;;;;;;;;;-146.27;100.00;64033.13;5093119;28;19912;-38
2022/06/16 01:47:22;;;;;;;;;;;;;;;-146.27;100.00;64033.13;5093505;28;19912;-38
2022/06/16 01:49:51;;;;;;;;;;;;;;;-146.27;100.00;64033.13;5092954;28;20018;-38
2022/06/16 01:52:34;;;;;;;;;;;;;;;-146.27;100.00;64033.13;5092959;28;19968;-39
2022/06/16 01:55:06;;;;;;;;;;;;;;;-146.27;100.00;64033.13;5093185;28;19912;-38
2022/06/16 01:57:36;;;;;;;;;;;;;;;-146.27;100.00;64033.13;5092761;28;19912;-39
2022/06/16 02:00:08;;;;;;;;;;;;;;;-146.27;100.00;64033.13;5092398;28;20010;-38
2022/06/16 02:02:35;;;;;;;;;;;;;;;-146.27;100.00;64033.13;5092727;28;19913;-39
2022/06/16 02:05:06;;;;;;;;;;;;;;;-146.27;100.00;64033.13;5092873;28;19919;-39
2022/06/16 02:07:51;;;;;;;;;;;;;;;-146.27;100.00;64033.13;5093022;28;19916;-39
2022/06/16 02:10:43;;;;;;;;;;;;;;;-146.27;100.00;64033.13;5092320;28;20249;-38
2022/06/16 02:13:09;;;;;;;;;;;;;;;-146.27;100.00;64033.13;5083883;28;19912;-38
2022/06/16 02:15:37;;;;;;;;;;;;;;;-146.27;100.00;64033.13;5092894;28;20292;-38
2022/06/16 02:18:05;;;;;;;;;;;;;;;-146.27;100.00;64033.13;5092557;28;19912;-38
2022/06/16 02:20:50;;;;;;;;;;;;;;;-146.27;100.00;64033.13;5092387;28;19916;-38
2022/06/16 02:23:15;;;;;;;;;;;;;;;-146.27;100.00;64033.13;5092228;28;20014;-38
2022/06/16 02:25:41;;;;;;;;;;;;;;;-146.27;100.00;64033.13;5092747;28;20057;-38
2022/06/16 02:28:07;;;;;;;;;;;;;;;-146.27;100.00;64033.13;5092281;28;19919;-38
2022/06/16 02:30:36;;;;;;;;;;;;;;;-146.27;100.00;64033.13;5092710;28;19913;-38
2022/06/16 02:33:13;;;;;;;;;;;;;;;-146.27;100.00;64033.13;5091702;28;20026;-47
2022/06/16 02:35:58;;;;;;;;;;;;;;;-146.27;100.00;64033.13;5092041;28;19927;-48
2022/06/16 02:38:59;;;;;;;;;;;;;;;-146.27;100.00;64033.13;5092683;28;19977;-48
2022/06/16 02:41:36;;;;;;;;;;;;;;;-146.27;100.00;64033.13;5048600;28;19917;-48
2022/06/16 02:44:20;;;;;;;;;;;;;;;-146.27;100.00;64033.13;5086186;28;19937;-47
2022/06/16 02:46:54;;;;;;;;;;;;;;;-146.27;100.00;64033.13;5092411;28;19992;-48
2022/06/16 02:49:26;;;;;;;;;;;;;;;-146.27;100.00;64033.13;5092490;28;19912;-47
2022/06/16 02:51:54;;;;;;;;;;;;;;;-146.27;100.00;64033.13;5092077;28;19912;-47
2022/06/16 02:54:27;;;;;;;;;;;;;;;-146.27;100.00;64033.13;5091676;28;19958;-48
2022/06/16 02:57:10;;;;;;;;;;;;;;;-146.27;100.00;64033.13;5092115;28;20278;-48
2022/06/16 02:59:42;;;;;;;;;;;;;;;-146.27;100.00;64033.13;5091953;28;19920;-48
2022/06/16 03:02:09;;;;;;;;;;;;;;;-146.27;100.00;64033.13;5091779;28;19916;-49
2022/06/16 03:04:38;;;;;;;;;;;;;;;-146.27;100.00;64033.13;5091280;28;20046;-49
2022/06/16 03:07:04;;;;;;;;;;;;;;;-146.27;100.00;64033.13;5091646;28;19919;-47
2022/06/16 03:09:29;;;;;;;;;;;;;;;-146.27;100.00;64033.13;5091691;28;19912;-47
2022/06/16 03:11:55;;;;;;;;;;;;;;;-146.27;100.00;64033.13;5091794;28;19916;-48
2022/06/16 03:14:20;;;;;;;;;;;;;;;-146.27;100.00;64033.13;5091532;28;19912;-48
2022/06/16 03:16:45;;;;;;;;;;;;;;;-146.27;100.00;64033.13;5091826;28;20016;-48
2022/06/16 03:19:11;;;;;;;;;;;;;;;-146.27;100.00;64033.13;5091503;28;19934;-48
2022/06/16 03:21:36;;;;;;;;;;;;;;;-146.27;100.00;64033.13;5083496;28;19916;-48
2022/06/16 03:24:01;;;;;;;;;;;;;;;-146.27;100.00;64033.13;5072072;28;19973;-47
2022/06/16 03:26:27;;;;;;;;;;;;;;;-146.27;100.00;64033.13;5091382;28;19915;-47
2022/06/16 03:28:52;;;;;;;;;;;;;;;-146.27;100.00;64033.13;5091867;28;19912;-38
2022/06/16 03:31:17;;;;;;;;;;;;;;;-146.27;100.00;64033.13;5091412;28;20378;-39
2022/06/16 03:33:43;;;;;;;;;;;;;;;-146.27;100.00;64033.13;5091164;28;19920;-37
2022/06/16 03:36:09;;;;;;;;;;;;;;;-146.27;100.00;64033.13;5091167;28;20015;-37
2022/06/16 03:38:43;;;;;;;;;;;;;;;-146.27;100.00;64033.13;5075079;28;19989;-37
2022/06/16 03:41:10;;;;;;;;;;;;;;;-146.27;100.00;64033.13;5082369;28;19916;-49
2022/06/16 03:43:36;;;;;;;;;;;;;;;-146.27;100.00;64033.13;5090619;28;19962;-50
2022/06/16 03:46:01;;;;;;;;;;;;;;;-146.27;100.00;64033.13;5090814;28;19916;-48
2022/06/16 03:48:27;;;;;;;;;;;;;;;-146.27;100.00;64033.13;5090177;28;19912;-50
2022/06/16 03:50:52;;;;;;;;;;;;;;;-146.27;100.00;64033.13;5090663;28;20412;-48
2022/06/16 03:53:17;;;;;;;;;;;;;;;-146.27;100.00;64033.13;5090153;28;19920;-48
2022/06/16 03:55:43;;;;;;;;;;;;;;;-146.27;100.00;64033.13;5090552;28;20256;-48
2022/06/16 03:58:09;;;;;;;;;;;;;;;-146.27;100.00;64033.13;5081749;28;19912;-51
2022/06/16 04:00:35;;;;;;;;;;;;;;;-146.27;100.00;64033.13;5070529;28;20040;-48
2022/06/16 04:05:44;;;;;;;;;;;;;;;-146.27;100.00;64033.13;5071791;28;19920;-47
2022/06/16 04:08:10;;;;;;;;;;;;;;;-146.27;100.00;64033.13;5070062;28;19912;-48
2022/06/16 04:10:36;;;;;;;;;;;;;;;-146.27;100.00;64033.13;5072974;28;19912;-50
2022/06/16 04:13:01;;;;;;;;;;;;;;;-146.27;100.00;64033.13;5073131;28;19912;-50
2022/06/16 04:15:26;;;;;;;;;;;;;;;-146.27;100.00;64033.13;5070071;28;19913;-51
2022/06/16 04:17:51;;;;;;;;;;;;;;;-146.27;100.00;64033.13;5069805;28;19920;-49
2022/06/16 04:20:17;;;;;;;;;;;;;;;-146.27;100.00;64033.13;5089119;28;19931;-50
2022/06/16 04:22:42;;;;;;;;;;;;;;;-146.27;100.00;64033.13;5109927;28;19912;-50
2022/06/16 04:25:09;;;;;;;;;;;;;;;-146.27;100.00;64033.13;5110218;28;19923;-49
2022/06/16 04:27:35;;;;;;;;;;;;;;;-146.27;100.00;64033.13;5109573;28;19931;-51
2022/06/16 04:30:01;;;;;;;;;;;;;;;-146.27;100.00;64033.13;5109383;28;19921;-49
2022/06/16 04:32:26;;;;;;;;;;;;;;;-146.27;100.00;64033.13;5109607;28;19916;-48
2022/06/16 04:34:51;;;;;;;;;;;;;;;-146.27;100.00;64033.13;5109843;28;19972;-50
2022/06/16 04:37:17;;;;;;;;;;;;;;;-146.27;100.00;64033.13;5110372;28;20470;-49
2022/06/16 04:39:42;;;;;;;;;;;;;;;-146.27;100.00;64033.13;5110112;28;19916;-49
2022/06/16 04:42:08;;;;;;;;;;;;;;;-146.27;100.00;64033.13;5102222;28;19916;-51
2022/06/16 04:44:34;;;;;;;;;;;;;;;-146.27;100.00;64033.13;5089723;28;19919;-51
2022/06/16 04:47:01;;;;;;;;;;;;;;;-146.27;100.00;64033.13;5090061;28;19912;-51
2022/06/16 04:49:27;;;;;;;;;;;;;;;-146.27;100.00;64033.13;5089919;28;19912;-49
2022/06/16 04:51:52;;;;;;;;;;;;;;;-146.27;100.00;64033.13;5087572;28;19970;-49
2022/06/16 04:54:17;;;;;;;;;;;;;;;-146.27;100.00;64033.13;5089621;28;19947;-51
2022/06/16 04:56:43;;;;;;;;;;;;;;;-146.27;100.00;64033.13;5089531;28;19916;-52
2022/06/16 04:59:09;;;;;;;;;;;;;;;-146.27;100.00;64033.13;5089408;28;19913;-50
2022/06/16 05:01:35;;;;;;;;;;;;;;;-146.27;100.00;64033.13;5089017;28;20006;-49
2022/06/16 05:04:00;;;;;;;;;;;;;;;-146.27;100.00;64033.13;5089299;28;20348;-51
2022/06/16 05:06:25;;;;;;;;;;;;;;;-146.27;100.00;64033.13;5092113;28;19923;-48
2022/06/16 05:08:51;;;;;;;;;;;;;;;-146.27;100.00;64033.13;5089025;28;20046;-48
2022/06/16 05:11:16;;;;;;;;;;;;;;;-146.27;100.00;64033.13;5084219;28;19916;-50
2022/06/16 05:13:41;;;;;;;;;;;;;;;-146.27;100.00;64033.13;5092464;28;19963;-49
2022/06/16 05:16:07;;;;;;;;;;;;;;;-146.27;100.00;64033.13;5092606;28;19943;-51
2022/06/16 05:18:32;;;;;;;;;;;;;;;-146.27;100.00;64033.13;5092717;28;19913;-51
2022/06/16 05:21:08;;;;;;;;;;;;;;;-146.27;100.00;64033.13;5101456;28;19920;-54
2022/06/16 05:23:33;;;;;;;;;;;;;;;-146.27;100.00;64033.13;5112071;28;19968;-48
2022/06/16 05:25:58;;;;;;;;;;;;;;;-146.27;100.00;64033.13;5111614;28;19911;-48
2022/06/16 05:28:24;;;;;;;;;;;;;;;-146.27;100.00;64033.13;5111289;28;20290;-48
2022/06/16 05:30:49;;;;;;;;;;;;;;;-146.27;100.00;64033.13;5111443;28;20110;-50
2022/06/16 05:33:14;;;;;;;;;;;;;;;-146.27;100.00;64033.13;5103718;28;19924;-50
2022/06/16 05:35:39;;;;;;;;;;;;;;;-146.27;100.00;64033.13;5090907;28;20338;-47
2022/06/16 05:38:05;;;;;;;;;;;;;;;-146.27;100.00;64033.13;5092207;28;19924;-50
2022/06/16 05:40:31;;;;;;;;;;;;;;;-146.27;100.00;64033.13;5092521;28;19920;-48
2022/06/16 05:42:56;;;;;;;;;;;;;;;-146.27;100.00;64033.13;5092741;28;19919;-49
2022/06/16 05:45:21;;;;;;;;;;;;;;;-146.27;100.00;64033.13;5092855;28;19913;-50
2022/06/16 05:47:47;;;;;;;;;;;;;;;-146.27;100.00;64033.13;5093744;28;19923;-53
2022/06/16 05:50:14;;;;;;;;;;;;;;;-146.27;100.00;64033.13;5093075;28;19912;-50
2022/06/16 05:52:39;;;;;;;;;;;;;;;-146.27;100.00;64033.13;5092627;28;19912;-51
2022/06/16 05:55:05;;;;;;;;;;;;;;;-146.27;100.00;64033.13;5092283;28;20014;-49
2022/06/16 05:57:30;;;;;;;;;;;;;;;-146.27;100.00;64033.13;5092636;28;19916;-50
2022/06/16 05:59:56;;;;;;;;;;;;;;;-146.27;100.00;64033.13;5092389;28;19916;-47
2022/06/16 06:02:21;;;;;;;;;;;;;;;-146.27;100.00;64033.13;5092702;28;19912;-49
2022/06/16 06:04:48;;;;;;;;;;;;;;;-146.27;100.00;64033.13;5092835;28;19969;-49
2022/06/16 06:07:13;;;;;;;;;;;;;;;-146.27;100.00;64033.13;5092520;28;20004;-50
2022/06/16 06:18:15;;;;;;;;;;;;;;;-146.27;100.00;64033.13;5092853;28;20049;-51
2022/06/16 06:20:40;;;;;;;;;;;;;;;-146.27;100.00;64033.13;5092145;28;19916;-49
2022/06/16 06:23:06;;;;;;;;;;;;;;;-146.27;100.00;64033.13;5092147;28;19919;-51
2022/06/16 06:25:31;;;;;;;;;;;;;;;-146.27;100.00;64033.13;5092570;28;20116;-49
2022/06/16 06:27:56;;;;;;;;;;;;;;;-146.27;100.00;64033.13;5092186;28;19912;-48
2022/06/16 06:30:29;;;;;;;;;;;;;;;-146.27;100.00;64033.13;5092571;28;20032;-49
2022/06/16 06:32:55;;;;;;;;;;;;;;;-146.27;100.00;64033.13;5090817;28;20431;-50
2022/06/16 06:35:21;;;;;;;;;;;;;;;-146.27;100.00;64033.13;5090715;28;20393;-48
2022/06/16 06:37:46;;;;;;;;;;;;;;;-146.27;100.00;64033.13;5092223;28;19970;-48
2022/06/16 06:40:17;;;;;;;;;;;;;;;-146.27;100.00;64033.13;5092088;28;19989;-50
2022/06/16 06:42:42;;;;;;;;;;;;;;;-146.27;100.00;64033.13;5092165;28;20002;-53
2022/06/16 06:45:08;;;;;;;;;;;;;;;-146.27;100.00;64033.13;5092056;28;20342;-48
2022/06/16 06:47:33;;;;;;;;;;;;;;;-146.27;100.00;64033.13;5091710;28;20303;-50
2022/06/16 06:49:58;;;;;;;;;;;;;;;-146.27;100.00;64033.13;5091710;28;19912;-49
2022/06/16 06:52:24;;;;;;;;;;;;;;;-146.27;100.00;64033.13;5091942;28;19912;-50
2022/06/16 06:54:49;;;;;;;;;;;;;;;-146.27;100.00;64033.13;5092053;28;19912;-49
2022/06/16 06:57:26;;;;;;;;;;;;;;;-146.27;100.00;64033.13;5091938;28;19916;-51
2022/06/16 06:59:51;;;;;;;;;;;;;;;-146.27;100.00;64033.13;5091389;28;19916;-48
2022/06/16 07:02:17;;;;;;;;;;;;;;;-146.27;100.00;64033.13;5092005;28;19968;-50
2022/06/16 07:04:42;;;;;;;;;;;;;;;-146.27;100.00;64033.13;5091643;28;19915;-47
2022/06/16 07:07:12;;;;;;;;;;;;;;;-146.27;100.00;64033.13;5091889;28;19916;-51
2022/06/16 07:09:37;;;;;;;;;;;;;;;-146.27;100.00;64033.13;5091396;28;19926;-51
2022/06/16 07:12:03;;;;;;;;;;;;;;;-146.27;100.00;64033.13;5091457;28;19912;-51
2022/06/16 07:14:30;;;;;;;;;;;;;;;-146.27;100.00;64033.13;5091532;28;20280;-48
2022/06/16 07:16:56;;;;;;;;;;;;;;;-146.27;100.00;64033.13;5091472;28;19922;-50
2022/06/16 07:19:21;;;;;;;;;;;;;;;-146.27;100.00;64033.13;5091490;28;20006;-46
2022/06/16 07:21:46;;;;;;;;;;;;;;;-146.27;100.00;64033.13;5106409;28;19912;-49
2022/06/16 07:24:12;;;;;;;;;;;;;;;-146.27;100.00;64033.13;5111815;28;20446;-52
2022/06/16 07:26:37;;;;;;;;;;;;;;;-146.27;100.00;64033.13;5111327;28;19984;-52
2022/06/16 07:29:03;;;;;;;;;;;;;;;-146.27;100.00;64033.13;5110606;28;19912;-51
2022/06/16 07:31:28;;;;;;;;;;;;;;;-146.27;100.00;64033.13;5110987;28;19926;-49
2022/06/16 07:33:54;;;;;;;;;;;;;;;-146.27;100.00;64033.13;5111501;28;20395;-51
2022/06/16 07:36:19;;;;;;;;;;;;;;;-146.27;100.00;64033.13;5111240;28;20366;-51
2022/06/16 07:38:46;;;;;;;;;;;;;;;-146.27;100.00;64033.13;5111486;28;19939;-51
2022/06/16 07:43:55;;;;;;;;;;;;;;;-146.27;100.00;64033.13;5111077;28;19923;-49
2022/06/16 07:46:21;;;;;;;;;;;;;;;-146.27;100.00;64033.13;5110979;28;19911;-51
2022/06/16 07:48:46;;;;;;;;;;;;;;;-146.27;100.00;64033.13;5111093;28;19912;-51
2022/06/16 07:51:11;;;;;;;;;;;;;;;-146.27;100.00;64033.13;5110896;28;19911;-49
2022/06/16 07:53:36;;;;;;;;;;;;;;;-146.27;100.00;64033.13;5110963;28;20053;-51
2022/06/16 07:56:02;;;;;;;;;;;;;;;-146.27;100.00;64033.13;5111377;28;19990;-52
2022/06/16 07:58:31;;;;;;;;;;;;;;;-146.27;100.00;64033.13;5111295;28;20316;-52
2022/06/16 08:00:57;;;;;;;;;;;;;;;-146.27;100.00;64033.13;5111309;28;19922;-52
2022/06/16 08:03:26;;;;;;;;;;;;;;;-146.27;100.00;64033.13;5110463;28;20006;-52
2022/06/16 08:05:52;;;;;;;;;;;;;;;-146.27;100.00;64033.13;5110868;28;19915;-52
2022/06/16 08:08:22;;;;;;;;;;;;;;;-146.27;100.00;64033.13;5110749;28;19935;-50
2022/06/16 08:10:47;;;;;;;;;;;;;;;-146.27;100.00;64033.13;5109890;28;20024;-48
2022/06/16 08:13:13;;;;;;;;;;;;;;;-146.27;100.00;64033.13;5110688;28;19945;-50
2022/06/16 08:15:38;;;;;;;;;;;;;;;-146.27;100.00;64033.13;5110692;28;20069;-48
2022/06/16 08:18:03;;;;;;;;;;;;;;;-146.27;100.00;64033.13;5110814;28;20345;-52
2022/06/16 08:20:29;;;;;;;;;;;;;;;-146.27;100.00;64033.13;5106432;28;19923;-52
2022/06/16 08:22:54;;;;;;;;;;;;;;;-146.27;100.00;64033.13;5090376;28;19955;-52
2022/06/16 08:25:19;;;;;;;;;;;;;;;-146.27;100.00;64033.13;5089915;28;20379;-51
2022/06/16 08:27:47;;;;;;;;;;;;;;;-146.27;100.00;64033.13;5090252;28;19913;-50
2022/06/16 08:30:13;;;;;;;;;;;;;;;-146.27;100.00;64033.13;5090138;28;19918;-49
2022/06/16 08:32:39;;;;;;;;;;;;;;;-146.27;100.00;64033.13;5090131;28;19924;-52
2022/06/16 08:35:05;;;;;;;;;;;;;;;-146.27;100.00;64033.13;5089840;28;20353;-52
2022/06/16 08:37:30;;;;;;;;;;;;;;;-146.27;100.00;64033.13;5101122;28;20396;-52
2022/06/16 08:39:56;;;;;;;;;;;;;;;-146.27;100.00;64033.13;5100177;28;19924;-49
2022/06/16 08:42:30;;;;;;;;;;;;;;;-146.27;100.00;64033.13;5108867;28;19912;-52
2022/06/16 08:45:05;;;;;;;;;;;;;;;-146.27;100.00;64033.13;5095554;28;20416;-50
2022/06/16 08:47:39;;;;;;;;;;;;;;;-146.27;100.00;64033.13;5105766;28;19916;-52
2022/06/16 08:50:04;;;;;;;;;;;;;;;-146.27;100.00;64033.13;5106697;28;20394;-48
2022/06/16 08:52:36;;;;;;;;;;;;;;;-146.27;100.00;64033.13;5097114;28;19912;-50
2022/06/16 08:55:14;;;;;;;;;;;;;;;-146.27;100.00;64033.13;5082343;28;20303;-50
2022/06/16 08:58:03;;;;;;;;;;;;;;;-146.27;100.00;64033.13;5104009;28;19913;-49
2022/06/16 09:00:39;;;;;;;;;;;;;;;-146.27;100.00;64033.13;5086634;28;20010;-52
2022/06/16 09:03:04;;;;;;;;;;;;;;;-146.27;100.00;64033.13;5098050;28;20446;-52
2022/06/16 09:05:44;;;;;;;;;;;;;;;-146.27;100.00;64033.13;5113601;28;20011;-50
2022/06/16 09:08:18;;;;;;;;;;;;;;;-146.27;100.00;64033.13;5093046;28;19949;-51
2022/06/16 09:10:49;;;;;;;;;;;;;;;-146.27;100.00;64033.13;5110208;28;20303;-52
2022/06/16 09:13:21;;;;;;;;;;;;;;;-146.27;100.00;64033.13;5099753;28;19994;-52
2022/06/16 09:15:46;;;;;;;;;;;;;;;-146.27;100.00;64033.13;5102014;28;19969;-51
2022/06/16 09:18:17;;;;;;;;;;;;;;;-146.27;100.00;64033.13;5107465;28;20033;-52
2022/06/16 09:20:57;;;;;;;;;;;;;;;-146.27;100.00;64033.13;5101538;28;19915;-51
2022/06/16 09:23:37;;;;;;;;;;;;;;;-146.27;100.00;64033.13;5104043;28;19916;-49
2022/06/16 09:26:09;;;;;;;;;;;;;;;-146.27;100.00;64033.13;5102814;28;20019;-51
2022/06/16 09:28:46;;;;;;;;;;;;;;;-146.27;100.00;64033.13;5099257;28;20323;-49
2022/06/16 09:31:14;;;;;;;;;;;;;;;-146.27;100.00;64033.13;5095768;28;19923;-52
2022/06/16 09:33:44;;;;;;;;;;;;;;;-146.27;100.00;64033.13;5093069;28;20354;-51
2022/06/16 09:36:15;;;;;;;;;;;;;;;-146.27;100.00;64033.13;5089821;28;19927;-51
2022/06/16 09:39:02;;;;;;;;;;;;;;;-146.27;100.00;64033.13;5091271;28;20018;-49
2022/06/16 09:44:32;;;;;;;;;;;;;;;-146.27;100.00;64033.13;5090930;28;19919;-53
2022/06/16 09:47:02;;;;;;;;;;;;;;;-146.27;100.00;64033.13;5088377;28;20357;-51
2022/06/16 09:49:34;;;;;;;;;;;;;;;-146.27;100.00;64033.13;5091634;28;20026;-50
2022/06/16 09:52:04;;;;;;;;;;;;;;;-146.27;100.00;64033.13;5091378;28;19919;-51
2022/06/16 09:54:34;;;;;;;;;;;;;;;-146.27;100.00;64033.13;5092175;28;19916;-48
2022/06/16 09:57:02;;;;;;;;;;;;;;;-146.27;100.00;64033.13;5091929;28;19920;-49
2022/06/16 09:59:46;;;;;;;;;;;;;;;-146.27;100.00;64033.13;5091997;28;20436;-53
2022/06/16 10:02:18;;;;;;;;;;;;;;;-146.27;100.00;64033.13;5090237;28;19912;-48
2022/06/16 10:04:43;;;;;;;;;;;;;;;-146.27;100.00;64033.13;5091935;28;19990;-49
2022/06/16 10:07:18;;;;;;;;;;;;;;;-146.27;100.00;64033.13;5092069;28;20383;-49
2022/06/16 10:10:02;;;;;;;;;;;;;;;-146.27;100.00;64033.13;5090461;28;19965;-49
2022/06/16 10:12:46;;;;;;;;;;;;;;;-146.27;100.00;64033.13;5093943;28;19938;-50
2022/06/16 10:15:28;;;;;;;;;;;;;;;-146.27;100.00;64033.13;5101142;28;20016;-53
2022/06/16 10:17:54;;;;;;;;;;;;;;;-146.27;100.00;64033.13;5101506;28;19999;-52
2022/06/16 10:20:21;;;;;;;;;;;;;;;-146.27;100.00;64033.13;5094968;28;19928;-51
2022/06/16 10:22:50;;;;;;;;;;;;;;;-146.27;100.00;64033.13;5091609;28;19912;-50
2022/06/16 10:25:17;;;;;;;;;;;;;;;-146.27;100.00;64033.13;5091637;28;20429;-51
2022/06/16 10:27:44;;;;;;;;;;;;;;;-146.27;100.00;64033.13;5091934;28;20010;-50
2022/06/16 10:30:20;;;;;;;;;;;;;;;-146.27;100.00;64033.13;5091536;28;19918;-51
2022/06/16 10:32:47;;;;;;;;;;;;;;;-146.27;100.00;64033.13;5088337;28;19981;-51
2022/06/16 10:35:18;;;;;;;;;;;;;;;-146.27;100.00;64033.13;5093680;28;19920;-51
2022/06/16 10:37:45;;;;;;;;;;;;;;;-146.27;100.00;64033.13;5090865;28;19916;-52
2022/06/16 10:40:14;;;;;;;;;;;;;;;-146.27;100.00;64033.13;5091221;28;20375;-51
2022/06/16 10:42:43;;;;;;;;;;;;;;;-146.27;100.00;64033.13;5090985;28;20334;-51
2022/06/16 10:45:15;;;;;;;;;;;;;;;-146.27;100.00;64033.13;5091425;28;19916;-50
2022/06/16 10:47:48;;;;;;;;;;;;;;;-146.27;100.00;64033.13;5091404;28;19912;-50
2022/06/16 10:50:22;;;;;;;;;;;;;;;-146.27;100.00;64033.13;5069518;28;20007;-49
2022/06/16 10:52:50;;;;;;;;;;;;;;;-146.27;100.00;64033.13;5071388;28;20387;-52
2022/06/16 10:55:20;;;;;;;;;;;;;;;-146.27;100.00;64033.13;5071371;28;20003;-37
2022/06/16 10:58:00;;;;;;;;;;;;;;;-146.27;100.00;64033.13;5071088;28;20327;-37
2022/06/16 11:00:27;;;;;;;;;;;;;;;-146.27;100.00;64033.13;5071490;28;19928;-38
2022/06/16 11:02:57;;;;;;;;;;;;;;;-146.27;100.00;64033.13;5070749;28;19969;-38
2022/06/16 11:05:23;;;;;;;;;;;;;;;-146.27;100.00;64033.13;5070702;28;19962;-37
2022/06/16 11:07:49;;;;;;;;;;;;;;;-146.27;100.00;64033.13;5071138;28;20006;-37
2022/06/16 11:10:28;;;;;;;;;;;;;;;-146.27;100.00;64033.13;5071322;28;19912;-38
2022/06/16 11:12:54;;;;;;;;;;;;;;;-146.27;100.00;64033.13;5070747;28;19913;-37
2022/06/16 11:15:29;;;;;;;;;;;;;;;-146.27;100.00;64033.13;5070917;28;19935;-38
2022/06/16 11:17:56;;;;;;;;;;;;;;;-146.27;100.00;64033.13;5070886;28;19913;-36
2022/06/16 11:20:27;;;;;;;;;;;;;;;-146.27;100.00;64033.13;5077771;28;19922;-37
2022/06/16 11:22:56;;;;;;;;;;;;;;;-146.27;100.00;64033.13;5111213;28;19999;-37
2022/06/16 11:25:28;;;;;;;;;;;;;;;-146.27;100.00;64033.13;5111359;28;20006;-38
2022/06/16 11:27:58;;;;;;;;;;;;;;;-146.27;100.00;64033.13;5111460;28;19922;-38
2022/06/16 11:30:32;;;;;;;;;;;;;;;-146.27;100.00;64033.13;5111518;28;20383;-38
2022/06/16 11:32:57;;;;;;;;;;;;;;;-146.27;100.00;64033.13;5111188;28;20342;-38
2022/06/16 11:35:31;;;;;;;;;;;;;;;-146.27;100.00;64033.13;5111382;28;20002;-36
2022/06/16 11:38:05;;;;;;;;;;;;;;;-146.27;100.00;64033.13;5110956;28;19919;-38
2022/06/16 11:40:30;;;;;;;;;;;;;;;-146.27;100.00;64033.13;5111070;28;19916;-37
2022/06/16 11:43:14;;;;;;;;;;;;;;;-146.27;100.00;64033.13;5109792;28;19922;-38
2022/06/16 11:46:00;;;;;;;;;;;;;;;-146.27;100.00;64033.13;5111094;28;19922;-38
2022/06/16 11:48:34;;;;;;;;;;;;;;;-146.27;100.00;64033.13;5110776;28;19912;-38
2022/06/16 11:51:05;;;;;;;;;;;;;;;-146.27;100.00;64033.13;5111022;28;20452;-37
2022/06/16 11:53:49;;;;;;;;;;;;;;;-146.27;100.00;64033.13;5111123;28;19998;-37
2022/06/16 11:56:30;;;;;;;;;;;;;;;-146.27;100.00;64033.13;5111215;28;19912;-38
2022/06/16 11:59:16;;;;;;;;;;;;;;;-146.27;100.00;64033.13;5110963;28;19922;-38
2022/06/16 12:01:44;;;;;;;;;;;;;;;-146.27;100.00;64033.13;5110990;28;20287;-38
2022/06/16 12:04:25;;;;;;;;;;;;;;;-146.27;100.00;64033.13;5111634;28;19937;-38
2022/06/16 12:06:50;;;;;;;;;;;;;;;-146.27;100.00;64033.13;5110951;28;19911;-37
2022/06/16 12:09:15;;;;;;;;;;;;;;;-146.27;100.00;64033.13;5110627;28;19912;-38
2022/06/16 12:11:45;;;;;;;;;;;;;;;-146.27;100.00;64033.13;5110913;28;20336;-38
2022/06/16 12:14:17;;;;;;;;;;;;;;;-146.27;100.00;64033.13;5111839;28;20398;-38
2022/06/16 12:16:52;;;;;;;;;;;;;;;-146.27;100.00;64033.13;5114705;28;20371;-38
2022/06/16 12:19:37;;;;;;;;;;;;;;;-146.27;100.00;64033.13;5114714;28;19923;-37
2022/06/16 12:22:13;;;;;;;;;;;;;;;-146.27;100.00;64033.13;5114878;28;19912;-36
2022/06/16 12:24:59;;;;;;;;;;;;;;;-146.27;100.00;64033.13;5115083;28;19985;-38
2022/06/16 12:27:45;;;;;;;;;;;;;;;-146.27;100.00;64033.13;5115151;28;20010;-38
2022/06/16 12:30:16;;;;;;;;;;;;;;;-146.27;100.00;64033.13;5110696;28;19969;-39
2022/06/16 12:32:53;;;;;;;;;;;;;;;-146.27;100.00;64033.13;5114758;28;19983;-36
2022/06/16 12:35:40;;;;;;;;;;;;;;;-146.27;100.00;64033.13;5114669;28;19939;-38
2022/06/16 12:38:10;;;;;;;;;;;;;;;-146.27;100.00;64033.13;5110106;28;19952;-37
2022/06/16 12:40:41;;;;;;;;;;;;;;;-146.27;100.00;64033.13;5114706;28;19916;-41
2022/06/16 12:43:12;;;;;;;;;;;;;;;-146.27;100.00;64033.13;5114872;28;19937;-39
2022/06/16 12:45:46;;;;;;;;;;;;;;;-146.27;100.00;64033.13;5114683;28;20002;-37
2022/06/16 12:48:18;;;;;;;;;;;;;;;-146.27;100.00;64033.13;5095789;28;19916;-36